Loyal, WI

3:28 AM CDT on July 13, 2014 (GMT -0500)
Marshfield Municipal (KMFI) Elev 1276 ft | 44.64 °N, 90.19 °W | Change Station

Current weather conditions updated 34 minutes ago

Overcast
Overcast
64 °F
Feels Like 64 °F
N
8
Wind Variable Wind from WNW

Today is forecast to be Cooler than yesterday.

Today
High -- | Low -- °F
--% Chance of Precip.
Yesterday
High -- | Low -- °F
Precip. -- in
5:28 AM 8:46 PM
Full, 99% visible
Pressure 29.87 in
Visibility 3.0 miles
Clouds Overcast 200 ft
Dew Point 63 °F
Humidity 96%
Rainfall 0.00 in
Snow Depth Not available.
UV 0 out of 12
Pollen 2.40 out of 12
Air Quality Not available.
Flu Activity Sporadic
METAR KMFI 130754Z AUTO 29007KT 3SM BR OVC002 18/17 A2988 RMK AO2 SLP113 T01780172

More Conditions Fewer Conditions

Pressure 29.87 in
Visibility 3.0 miles
Clouds Overcast 200 ft
Dew Point 63 °F
Humidity 96%
Rainfall 0.00 in
Snow Depth Not available.
UV 0 out of 12
Pollen 2.40 out of 12
Air Quality Not available.
Flu Activity Sporadic
METAR KMFI 130754Z AUTO 29007KT 3SM BR OVC002 18/17 A2988 RMK AO2 SLP113 T01780172

More Conditions Fewer Conditions

10-Day Weather Forecast

Almanac

Astronomy

Jul. 13, 2014 Rise Set
Actual Time 5:28 AM CDT 8:46 PM CDT
Civil Twilight 4:52 AM CDT 9:22 PM CDT
Nautical Twilight 4:06 AM CDT 10:08 PM CDT
Astronomical Twilight 3:08 AM CDT 11:06 PM CDT
Moon 9:27 PM CDT 7:05 AM CDT
Length of Visible Light 16h 29m
Length of Day
15h 17m
Tomorrow will be 1m 33s shorter.
Full, 99% of the Moon is Illuminated
Today
Full
Jul 18
Last Quarter
Jul 26
New
Aug 3
First Quarter
Aug 10
Full

Today's Extremes

State Highs State Lows

Community

WunderPhotos

Upload Photos

1,733,143 photos uploaded!

Nearby

Snow Depth

Station Depth Elevation
No new snow has been reported.

Earthquake Activity

City Distance Mag. Time & Date
No recent earthquake activity has been reported nearby.
Minimum magnitude displayed is 2.5.

Coastal Water Temperatures

Place Temperature
No Stations Reporting

Nearby Weather Stations

There are no personal weather stations in this area.